Moscow, Idaho
Current Conditions -  °F | °C
As of 10:28 PM on Monday 20 Oct 2014 (Local Time) from KPUW Reporting Station
Overcast Overcast  
Wind Chill: 51°   Ceiling: 2600
Heat Index: 51°   Visibility: 10mi
Dew Point: 42°   Wind: 20mph
Humidity: 71%   Direction: 270°W
Pressure: 29.89"   Gusts: 29mph
Location:  46.73°N, 117°W
Report Text: KPUW 210528Z AUTO 27017G25KT 10SM BKN026 OVC036 11/06 A2989 RMK AO2 T01060056
Loading
Personal Weather Stations






























Interactive Weather Map
Tropical Storm Tracking
New forecast layout! Learn more

10-Day Weather Forecast

Advertisements
Track Severe Weather on mobile